Time;durP1;ratioP1;P1;durP2;ratioP2;P2;SDS_P1;SDS_P2;PMS_P1;PMS_P2;Temp;Humidity;BMP_temperature;BMP_pressure;BME280_temperature;BME280_humidity;BME280_pressure;Samples;Min_cycle;Max_cycle;Signal;HPM_P1;HPM_P2
2021/08/06 00:01:21;;;;;;;7.10;6.43;;;;;14.50;101717.00;;;;5089216;28;20132;-78
2021/08/06 00:03:49;;;;;;;9.45;6.70;;;;;14.50;101709.00;;;;5088823;28;20035;-78
2021/08/06 00:06:16;;;;;;;10.20;7.15;;;;;14.50;101705.00;;;;5089081;28;20032;-78
2021/08/06 00:08:42;;;;;;;7.55;6.85;;;;;14.50;101699.00;;;;5088210;28;20462;-78
2021/08/06 00:11:10;;;;;;;7.25;6.53;;;;;14.50;101718.00;;;;5089674;28;20391;-78
2021/08/06 00:13:42;;;;;;;7.38;6.72;;;;;14.50;101724.00;;;;5088765;28;20024;-78
2021/08/06 00:16:08;;;;;;;7.47;6.28;;;;;14.40;101708.00;;;;5089060;28;20111;-78
2021/08/06 00:18:36;;;;;;;7.63;6.88;;;;;14.30;101718.00;;;;5089179;28;20099;-78
2021/08/06 00:21:03;;;;;;;12.10;6.82;;;;;14.20;101715.00;;;;5087179;28;20062;-78
2021/08/06 00:23:29;;;;;;;8.35;7.55;;;;;14.30;101732.00;;;;5087703;28;20088;-79
2021/08/06 00:25:57;;;;;;;7.78;7.00;;;;;14.20;101736.00;;;;5088269;28;20060;-78
2021/08/06 00:28:24;;;;;;;7.82;6.47;;;;;14.00;101751.00;;;;5087123;28;20040;-78
2021/08/06 00:30:50;;;;;;;7.75;6.78;;;;;14.00;101746.00;;;;5087647;28;20024;-78
2021/08/06 00:33:18;;;;;;;12.32;7.38;;;;;14.00;101727.00;;;;5088244;28;20475;-78
2021/08/06 00:35:44;;;;;;;10.43;7.07;;;;;13.90;101726.00;;;;5093985;28;20042;-78
2021/08/06 00:38:14;;;;;;;7.78;7.03;;;;;13.80;101726.00;;;;5089345;28;20036;-78
2021/08/06 00:40:41;;;;;;;8.25;7.43;;;;;13.80;101743.00;;;;5053290;28;20038;-78
2021/08/06 00:43:07;;;;;;;8.95;7.88;;;;;13.90;101715.00;;;;5086632;28;20455;-78
2021/08/06 00:45:34;;;;;;;13.30;8.00;;;;;13.90;101724.00;;;;5088571;28;20027;-77
2021/08/06 00:48:01;;;;;;;8.35;7.50;;;;;13.90;101741.00;;;;5086844;28;20058;-78
2021/08/06 00:50:30;;;;;;;8.15;7.32;;;;;13.80;101752.00;;;;5086495;28;20078;-78
2021/08/06 00:52:57;;;;;;;9.35;7.80;;;;;13.80;101719.00;;;;5088003;28;20115;-79
2021/08/06 00:55:23;;;;;;;8.50;7.68;;;;;13.80;101729.00;;;;5088159;28;20110;-79
2021/08/06 00:57:51;;;;;;;8.07;7.28;;;;;13.90;101748.00;;;;5087955;28;20126;-78
2021/08/06 01:00:21;;;;;;;9.88;7.57;;;;;13.80;101752.00;;;;5087761;28;20070;-80
2021/08/06 01:03:13;;;;;;;10.30;8.25;;;;;13.80;101762.00;;;;5086212;28;20089;-79
2021/08/06 01:05:51;;;;;;;12.73;6.88;;;;;13.90;101746.00;;;;5088136;28;20055;-79
2021/08/06 01:08:35;;;;;;;9.30;7.10;;;;;13.80;101743.00;;;;5087657;28;20032;-79
2021/08/06 01:11:06;;;;;;;8.52;7.63;;;;;13.80;101754.00;;;;5088669;28;20028;-79
2021/08/06 01:13:52;;;;;;;8.05;7.28;;;;;13.70;101757.00;;;;5087085;28;20410;-78
2021/08/06 01:16:27;;;;;;;8.25;7.45;;;;;13.80;101739.00;;;;5087998;28;20024;-79
2021/08/06 01:19:11;;;;;;;7.65;6.95;;;;;13.70;101770.00;;;;5087888;28;20102;-79
2021/08/06 01:21:49;;;;;;;7.53;6.82;;;;;13.60;101755.00;;;;5087058;28;20083;-78
2021/08/06 01:24:21;;;;;;;7.63;6.90;;;;;13.60;101774.00;;;;5086210;28;20495;-78
2021/08/06 01:26:48;;;;;;;8.00;6.97;;;;;13.70;101733.00;;;;5083758;28;20134;-79
2021/08/06 01:29:15;;;;;;;7.68;6.88;;;;;13.70;101762.00;;;;5085162;28;20032;-79
2021/08/06 01:31:43;;;;;;;8.15;7.35;;;;;13.70;101754.00;;;;5085733;28;20032;-79
2021/08/06 01:34:10;;;;;;;7.07;6.43;;;;;13.70;101759.00;;;;5085737;28;20034;-79
2021/08/06 01:36:38;;;;;;;7.93;7.13;;;;;13.70;101757.00;;;;5085636;28;20039;-79
2021/08/06 01:39:05;;;;;;;7.53;6.82;;;;;13.70;101757.00;;;;5086588;28;20118;-79
2021/08/06 01:41:55;;;;;;;7.10;6.40;;;;;13.60;101784.00;;;;5086411;28;20031;-78
2021/08/06 01:44:39;;;;;;;9.10;7.30;;;;;13.60;101783.00;;;;5087648;28;20035;-79
2021/08/06 01:47:38;;;;;;;7.35;6.65;;;;;13.60;101793.00;;;;5085672;28;20028;-79
2021/08/06 01:50:13;;;;;;;7.65;6.63;;;;;13.60;101778.00;;;;5082636;28;20044;-78
2021/08/06 01:52:50;;;;;;;7.25;6.55;;;;;13.60;101760.00;;;;5087289;28;20023;-79
2021/08/06 01:55:18;;;;;;;6.95;6.25;;;;;13.50;101772.00;;;;5087080;28;20039;-78
2021/08/06 01:57:46;;;;;;;9.93;6.93;;;;;13.50;101754.00;;;;5085659;28;20064;-79
2021/08/06 02:00:14;;;;;;;7.03;6.35;;;;;13.40;101777.00;;;;5086870;28;20028;-78
2021/08/06 02:02:41;;;;;;;7.18;6.50;;;;;13.50;101773.00;;;;5087135;28;20577;-79
2021/08/06 02:05:10;;;;;;;7.80;6.75;;;;;13.50;101768.00;;;;5087344;28;20040;-79
2021/08/06 02:07:37;;;;;;;7.05;6.43;;;;;13.50;101778.00;;;;5087809;28;20430;-79
2021/08/06 02:10:04;;;;;;;7.95;6.43;;;;;13.50;101766.00;;;;5087830;28;20080;-79
2021/08/06 02:12:33;;;;;;;8.38;5.90;;;;;13.50;101754.00;;;;5087199;28;20035;-78
2021/08/06 02:15:00;;;;;;;7.15;6.45;;;;;13.40;101754.00;;;;5086355;28;20032;-79
2021/08/06 02:17:27;;;;;;;7.07;6.38;;;;;13.50;101751.00;;;;5087367;28;20449;-79
2021/08/06 02:19:55;;;;;;;7.00;6.40;;;;;13.50;101767.00;;;;5087056;28;20483;-79
2021/08/06 02:22:23;;;;;;;9.02;6.57;;;;;13.40;101750.00;;;;5086026;28;20427;-79
2021/08/06 02:24:50;;;;;;;6.78;6.10;;;;;13.40;101757.00;;;;5086739;28;20039;-79
2021/08/06 02:27:17;;;;;;;7.28;6.53;;;;;13.40;101779.00;;;;5086682;28;20108;-78
2021/08/06 02:29:46;;;;;;;8.10;6.50;;;;;13.40;101748.00;;;;5086439;28;20542;-79
2021/08/06 02:32:13;;;;;;;7.80;7.00;;;;;13.40;101744.00;;;;5087457;28;20024;-78
2021/08/06 02:34:39;;;;;;;7.00;6.22;;;;;13.30;101758.00;;;;5087435;28;20118;-78
2021/08/06 02:37:06;;;;;;;7.43;6.68;;;;;13.30;101777.00;;;;5084858;28;20418;-78
2021/08/06 02:39:33;;;;;;;6.72;6.13;;;;;13.30;101758.00;;;;5086832;28;20036;-79
2021/08/06 02:42:01;;;;;;;7.22;6.53;;;;;13.30;101745.00;;;;5086679;28;20043;-78
2021/08/06 02:44:28;;;;;;;7.25;5.93;;;;;13.20;101768.00;;;;5087020;28;20024;-78
2021/08/06 02:46:55;;;;;;;7.97;6.10;;;;;13.30;101764.00;;;;5088718;28;20039;-78
2021/08/06 02:49:21;;;;;;;7.50;6.70;;;;;13.20;101754.00;;;;5088875;28;20464;-78
2021/08/06 02:51:48;;;;;;;6.85;6.15;;;;;13.10;101754.00;;;;5091054;28;20376;-79
2021/08/06 02:54:14;;;;;;;7.13;6.47;;;;;13.00;101758.00;;;;5091069;28;20459;-78
2021/08/06 02:56:41;;;;;;;10.20;6.70;;;;;13.00;101753.00;;;;5090598;28;20027;-78
2021/08/06 02:59:08;;;;;;;7.15;6.45;;;;;12.90;101745.00;;;;5091203;28;20024;-78
2021/08/06 03:01:34;;;;;;;8.18;7.15;;;;;12.90;101783.00;;;;5090833;28;20063;-78
2021/08/06 03:04:01;;;;;;;7.53;6.72;;;;;12.90;101786.00;;;;5090831;28;20043;-79
2021/08/06 03:06:27;;;;;;;7.45;6.75;;;;;12.90;101790.00;;;;5090485;28;20510;-79
2021/08/06 03:08:54;;;;;;;8.70;7.15;;;;;12.90;101755.00;;;;5090249;28;20028;-79
2021/08/06 03:11:20;;;;;;;7.80;7.10;;;;;12.80;101751.00;;;;5090057;28;20027;-79
2021/08/06 03:13:47;;;;;;;7.40;6.72;;;;;12.80;101752.00;;;;5088918;28;20032;-78
2021/08/06 03:16:13;;;;;;;7.63;6.93;;;;;12.80;101758.00;;;;5090501;28;20031;-78
2021/08/06 03:18:40;;;;;;;8.02;7.22;;;;;12.80;101764.00;;;;5090334;28;20503;-78
2021/08/06 03:21:07;;;;;;;7.57;6.88;;;;;12.80;101765.00;;;;5090003;28;20052;-78
2021/08/06 03:23:33;;;;;;;8.40;7.55;;;;;12.80;101749.00;;;;5090090;28;20028;-79
2021/08/06 03:26:00;;;;;;;8.35;7.50;;;;;12.80;101748.00;;;;5090836;28;20040;-78
2021/08/06 03:28:26;;;;;;;12.73;8.27;;;;;12.80;101758.00;;;;5090408;28;20124;-78
2021/08/06 03:30:53;;;;;;;8.20;7.35;;;;;12.70;101745.00;;;;5090176;28;20030;-78
2021/08/06 03:33:20;;;;;;;8.60;7.47;;;;;12.70;101749.00;;;;5089663;28;20051;-78
2021/08/06 03:35:46;;;;;;;9.20;8.30;;;;;12.70;101737.00;;;;5089752;28;20031;-78
2021/08/06 03:38:18;;;;;;;9.30;7.90;;;;;12.70;101733.00;;;;5089703;28;20024;-78
2021/08/06 03:40:45;;;;;;;8.50;7.65;;;;;12.70;101763.00;;;;5090026;28;20035;-78
2021/08/06 03:43:12;;;;;;;9.10;7.88;;;;;12.70;101767.00;;;;5090118;28;20035;-78
2021/08/06 03:45:39;;;;;;;9.60;8.25;;;;;12.70;101726.00;;;;5089895;28;20028;-78
2021/08/06 03:48:06;;;;;;;9.52;8.63;;;;;12.70;101726.00;;;;5089765;28;20032;-79
2021/08/06 03:50:33;;;;;;;9.93;8.70;;;;;12.70;101756.00;;;;5090130;28;20113;-79
2021/08/06 03:53:01;;;;;;;10.68;8.82;;;;;12.70;101724.00;;;;5089675;28;20031;-79
2021/08/06 03:55:27;;;;;;;11.77;8.90;;;;;12.70;101749.00;;;;5089385;28;20207;-79
2021/08/06 03:57:56;;;;;;;9.82;8.82;;;;;12.70;101733.00;;;;5088593;28;20399;-79
2021/08/06 04:00:25;;;;;;;9.05;8.15;;;;;12.60;101720.00;;;;5089403;28;20506;-79
2021/08/06 04:02:52;;;;;;;10.77;9.68;;;;;12.60;101728.00;;;;5089304;28;20031;-77
2021/08/06 04:05:19;;;;;;;10.73;8.73;;;;;12.60;101745.00;;;;5088993;28;20035;-79
2021/08/06 04:07:48;;;;;;;12.82;8.25;;;;;12.40;101755.00;;;;5089574;28;20111;-79
2021/08/06 04:10:19;;;;;;;10.43;8.30;;;;;12.40;101744.00;;;;5089682;28;20097;-78
2021/08/06 04:12:48;;;;;;;10.50;9.00;;;;;12.40;101729.00;;;;5089180;28;20045;-78
2021/08/06 04:15:16;;;;;;;9.05;8.15;;;;;12.40;101722.00;;;;5088975;28;20505;-79
2021/08/06 04:17:43;;;;;;;13.30;9.40;;;;;12.30;101747.00;;;;5089506;28;20107;-79
2021/08/06 04:20:10;;;;;;;13.10;9.35;;;;;12.20;101728.00;;;;5088963;28;20036;-78
2021/08/06 04:22:36;;;;;;;10.45;9.35;;;;;12.30;101734.00;;;;5089445;28;20070;-79
2021/08/06 04:25:04;;;;;;;10.80;9.07;;;;;12.40;101721.00;;;;5088852;28;20032;-78
2021/08/06 04:27:31;;;;;;;9.88;8.88;;;;;12.40;101720.00;;;;5089151;28;20146;-79
2021/08/06 04:29:57;;;;;;;10.73;9.63;;;;;12.30;101731.00;;;;5089378;28;20031;-79
2021/08/06 04:32:24;;;;;;;10.10;9.13;;;;;12.30;101703.00;;;;5088457;28;20439;-78
2021/08/06 04:34:51;;;;;;;11.73;8.93;;;;;12.30;101725.00;;;;5088934;28;20035;-78
2021/08/06 04:37:17;;;;;;;11.25;9.30;;;;;12.30;101719.00;;;;5088862;28;20601;-78
2021/08/06 04:39:44;;;;;;;12.75;8.88;;;;;12.30;101716.00;;;;5089028;28;20056;-78
2021/08/06 04:42:10;;;;;;;10.70;8.95;;;;;12.30;101706.00;;;;5088744;28;20040;-78
2021/08/06 04:44:38;;;;;;;10.43;8.95;;;;;12.20;101705.00;;;;5089324;28;20046;-78
2021/08/06 04:47:05;;;;;;;9.68;8.68;;;;;12.10;101704.00;;;;5088471;28;20394;-79
2021/08/06 04:49:32;;;;;;;9.85;8.50;;;;;12.10;101688.00;;;;5088424;28;20080;-79
2021/08/06 04:51:59;;;;;;;11.52;9.05;;;;;12.10;101702.00;;;;5088807;28;20108;-79
2021/08/06 04:54:26;;;;;;;10.50;9.32;;;;;12.00;101695.00;;;;5088858;28;20503;-79
2021/08/06 04:56:53;;;;;;;11.93;9.25;;;;;12.00;101690.00;;;;5088490;28;20036;-79
2021/08/06 04:59:20;;;;;;;11.55;9.65;;;;;12.00;101689.00;;;;5087981;28;20032;-79
2021/08/06 05:01:47;;;;;;;10.57;9.48;;;;;12.00;101675.00;;;;5087951;28;20028;-80
2021/08/06 05:04:13;;;;;;;11.80;9.75;;;;;12.10;101692.00;;;;5088066;28;20032;-79
2021/08/06 05:06:41;;;;;;;10.57;9.07;;;;;12.00;101652.00;;;;5088013;28;20020;-79
2021/08/06 05:09:07;;;;;;;11.05;8.98;;;;;12.00;101662.00;;;;5087835;28;20127;-78
2021/08/06 05:11:35;;;;;;;10.48;9.48;;;;;12.00;101679.00;;;;5087916;28;20083;-78
2021/08/06 05:14:02;;;;;;;11.63;9.13;;;;;12.10;101659.00;;;;5087738;28;20130;-78
2021/08/06 05:16:28;;;;;;;12.95;9.05;;;;;12.10;101672.00;;;;5087873;28;20032;-78
2021/08/06 05:18:55;;;;;;;11.20;9.38;;;;;11.90;101650.00;;;;5087997;28;20028;-78
2021/08/06 05:21:21;;;;;;;11.25;9.18;;;;;11.80;101656.00;;;;5087402;28;20082;-78
2021/08/06 05:23:48;;;;;;;10.95;9.07;;;;;11.80;101677.00;;;;5087544;28;20020;-79
2021/08/06 05:26:16;;;;;;;10.27;9.02;;;;;11.80;101656.00;;;;5088205;28;20102;-79
2021/08/06 05:28:42;;;;;;;10.60;9.02;;;;;11.80;101651.00;;;;5087529;28;20543;-78
2021/08/06 05:31:09;;;;;;;9.98;8.98;;;;;11.80;101654.00;;;;5088166;28;20031;-78
2021/08/06 05:33:35;;;;;;;10.05;9.00;;;;;11.80;101637.00;;;;5087533;28;20556;-78
2021/08/06 05:36:02;;;;;;;11.00;8.52;;;;;11.80;101647.00;;;;5087754;28;20502;-78
2021/08/06 05:38:29;;;;;;;11.07;9.07;;;;;11.80;101651.00;;;;5087419;28;20028;-77
2021/08/06 05:40:58;;;;;;;10.25;8.70;;;;;11.70;101635.00;;;;5087847;28;20028;-78
2021/08/06 05:43:25;;;;;;;11.55;9.07;;;;;11.60;101663.00;;;;5087132;28;20047;-78
2021/08/06 05:45:51;;;;;;;15.10;9.65;;;;;11.60;101635.00;;;;5088121;28;20127;-78
2021/08/06 05:48:18;;;;;;;11.20;9.30;;;;;11.60;101659.00;;;;5087450;28;20027;-78
2021/08/06 05:50:45;;;;;;;11.23;8.90;;;;;11.60;101626.00;;;;5087254;28;20032;-78
2021/08/06 05:53:11;;;;;;;11.98;9.13;;;;;11.50;101623.00;;;;5087206;28;20024;-78
2021/08/06 05:55:38;;;;;;;11.30;9.15;;;;;11.50;101640.00;;;;5087299;28;20062;-78
2021/08/06 05:58:05;;;;;;;12.82;9.88;;;;;11.40;101641.00;;;;5086743;28;20024;-78
2021/08/06 06:00:32;;;;;;;10.70;9.43;;;;;11.40;101637.00;;;;5087685;28;20027;-77
2021/08/06 06:02:59;;;;;;;12.07;9.25;;;;;11.30;101621.00;;;;5087037;28;20080;-78
2021/08/06 06:05:25;;;;;;;12.43;9.32;;;;;11.30;101609.00;;;;5087679;28;20383;-78
2021/08/06 06:07:52;;;;;;;10.30;8.73;;;;;11.30;101636.00;;;;5087136;28;20032;-77
2021/08/06 06:10:21;;;;;;;10.80;9.65;;;;;11.30;101646.00;;;;5087119;28;20028;-77
2021/08/06 06:12:49;;;;;;;10.73;8.52;;;;;11.30;101648.00;;;;5086987;28;20514;-79
2021/08/06 06:15:16;;;;;;;11.57;8.93;;;;;11.20;101654.00;;;;5086630;28;20031;-78
2021/08/06 06:17:44;;;;;;;10.93;9.10;;;;;11.20;101643.00;;;;5087045;28;20055;-78
2021/08/06 06:20:11;;;;;;;12.38;8.52;;;;;11.20;101620.00;;;;5086881;28;20479;-78
2021/08/06 06:22:38;;;;;;;10.48;8.38;;;;;11.20;101637.00;;;;5086526;28;20422;-77
2021/08/06 06:25:05;;;;;;;10.95;8.40;;;;;11.10;101619.00;;;;5086562;28;20948;-79
2021/08/06 06:27:31;;;;;;;10.82;8.60;;;;;11.10;101635.00;;;;5086892;28;20034;-79
2021/08/06 06:29:58;;;;;;;16.30;8.25;;;;;10.90;101635.00;;;;5087165;28;20450;-79
2021/08/06 06:32:24;;;;;;;10.43;7.60;;;;;10.90;101614.00;;;;5087207;28;20062;-79
2021/08/06 06:34:51;;;;;;;9.95;8.10;;;;;10.90;101614.00;;;;5086481;28;20032;-78
2021/08/06 06:37:17;;;;;;;11.95;9.45;;;;;10.80;101603.00;;;;5086808;28;20089;-79
2021/08/06 06:39:44;;;;;;;12.80;9.60;;;;;10.80;101601.00;;;;5085591;28;20032;-78
2021/08/06 06:42:10;;;;;;;12.98;10.07;;;;;10.80;101593.00;;;;5085975;28;20070;-79
2021/08/06 06:44:38;;;;;;;16.33;10.55;;;;;10.90;101587.00;;;;5085114;28;20123;-79
2021/08/06 06:47:04;;;;;;;14.07;10.07;;;;;10.80;101605.00;;;;5086440;28;20055;-79
2021/08/06 06:49:31;;;;;;;13.18;9.55;;;;;10.90;101600.00;;;;5086880;28;20032;-77
2021/08/06 06:51:57;;;;;;;11.07;8.55;;;;;10.80;101581.00;;;;5086497;28;20028;-78
2021/08/06 06:54:24;;;;;;;11.70;9.15;;;;;10.90;101609.00;;;;5086661;28;20027;-78
2021/08/06 06:56:50;;;;;;;10.80;8.40;;;;;10.90;101582.00;;;;5087094;28;20024;-78
2021/08/06 06:59:17;;;;;;;8.73;7.78;;;;;10.90;101591.00;;;;5087335;28;20069;-79
2021/08/06 07:01:43;;;;;;;10.50;8.18;;;;;10.90;101579.00;;;;5086397;28;20120;-78
2021/08/06 07:04:10;;;;;;;21.63;9.80;;;;;10.80;101572.00;;;;5086616;28;20028;-79
2021/08/06 07:06:36;;;;;;;14.80;8.73;;;;;10.80;101606.00;;;;5086067;28;20024;-77
2021/08/06 07:09:08;;;;;;;16.83;8.55;;;;;10.80;101590.00;;;;5086711;28;20518;-78
2021/08/06 07:11:35;;;;;;;11.15;8.40;;;;;10.80;101572.00;;;;5086813;28;20036;-78
2021/08/06 07:14:02;;;;;;;11.95;7.95;;;;;10.80;101579.00;;;;5086180;28;20038;-79
2021/08/06 07:16:28;;;;;;;9.55;8.00;;;;;10.80;101572.00;;;;5086218;28;20035;-80
2021/08/06 07:18:55;;;;;;;13.35;8.13;;;;;10.80;101585.00;;;;5086261;28;20036;-77
2021/08/06 07:21:23;;;;;;;10.43;7.95;;;;;10.90;101574.00;;;;5086021;28;20488;-78
2021/08/06 07:23:53;;;;;;;13.00;9.25;;;;;10.90;101584.00;;;;5086536;28;20024;-77
2021/08/06 07:26:20;;;;;;;10.05;7.32;;;;;11.00;101580.00;;;;5086783;28;20028;-79
2021/08/06 07:28:47;;;;;;;10.75;7.82;;;;;11.00;101595.00;;;;5086076;28;20029;-78
2021/08/06 07:31:14;;;;;;;14.02;8.82;;;;;11.00;101563.00;;;;5086316;28;20030;-78
2021/08/06 07:33:41;;;;;;;12.77;8.57;;;;;11.00;101590.00;;;;5087354;28;20103;-78
2021/08/06 07:36:07;;;;;;;12.45;8.13;;;;;11.00;101562.00;;;;5090454;28;20036;-79
2021/08/06 07:38:34;;;;;;;13.52;8.20;;;;;11.00;101558.00;;;;5089802;28;20028;-77
2021/08/06 07:41:00;;;;;;;12.02;7.90;;;;;10.90;101589.00;;;;5089730;28;20167;-78
2021/08/06 07:43:27;;;;;;;12.68;7.70;;;;;10.90;101586.00;;;;5089998;28;20028;-79
2021/08/06 07:45:53;;;;;;;13.25;8.10;;;;;10.90;101589.00;;;;5089825;28;20105;-77
2021/08/06 07:48:20;;;;;;;12.77;7.63;;;;;10.90;101592.00;;;;5089281;28;20020;-78
2021/08/06 07:50:47;;;;;;;11.02;7.63;;;;;11.00;101564.00;;;;5090436;28;20033;-78
2021/08/06 07:53:13;;;;;;;14.23;7.95;;;;;11.00;101576.00;;;;5088011;28;20840;-77
2021/08/06 07:55:40;;;;;;;12.27;7.68;;;;;11.00;101565.00;;;;5089302;28;20111;-79
2021/08/06 07:58:07;;;;;;;10.80;7.15;;;;;10.80;101580.00;;;;5089162;28;20028;-78
2021/08/06 08:00:33;;;;;;;8.55;6.40;;;;;10.80;101592.00;;;;5088835;28;20541;-77
2021/08/06 08:03:00;;;;;;;11.25;7.00;;;;;10.70;101573.00;;;;5089118;28;20035;-78
2021/08/06 08:05:26;;;;;;;11.27;8.02;;;;;10.80;101605.00;;;;5089480;28;20437;-78
2021/08/06 08:07:53;;;;;;;8.18;7.10;;;;;10.90;101573.00;;;;5089986;28;20045;-77
2021/08/06 08:10:20;;;;;;;11.23;8.02;;;;;10.80;101604.00;;;;5089259;28;20055;-78
2021/08/06 08:12:47;;;;;;;11.10;8.50;;;;;10.60;101581.00;;;;5089255;28;20032;-77
2021/08/06 08:15:14;;;;;;;8.98;7.95;;;;;10.60;101606.00;;;;5089458;28;20024;-78
2021/08/06 08:17:41;;;;;;;12.00;8.85;;;;;10.60;101584.00;;;;5089253;28;20032;-78
2021/08/06 08:20:08;;;;;;;14.00;8.32;;;;;10.70;101600.00;;;;5089326;28;20070;-78
2021/08/06 08:22:35;;;;;;;10.95;7.78;;;;;10.70;101572.00;;;;5089447;28;20052;-78
2021/08/06 08:25:03;;;;;;;10.05;7.00;;;;;10.60;101605.00;;;;5089173;28;20062;-78
2021/08/06 08:27:30;;;;;;;17.70;8.52;;;;;10.60;101588.00;;;;5087204;28;20036;-78
2021/08/06 08:29:56;;;;;;;8.65;6.43;;;;;10.60;101609.00;;;;5088935;28;20062;-78
2021/08/06 08:32:23;;;;;;;9.80;7.47;;;;;10.50;101585.00;;;;5088777;28;20077;-78
2021/08/06 08:34:49;;;;;;;11.10;7.40;;;;;10.50;101585.00;;;;5088703;28;20532;-78
2021/08/06 08:37:16;;;;;;;9.88;7.10;;;;;10.50;101581.00;;;;5088648;28;20028;-78
2021/08/06 08:39:43;;;;;;;8.48;6.68;;;;;10.50;101581.00;;;;5088475;28;20115;-77
2021/08/06 08:42:10;;;;;;;10.65;7.93;;;;;10.50;101584.00;;;;5088183;28;20114;-77
2021/08/06 08:44:39;;;;;;;12.65;7.80;;;;;10.50;101592.00;;;;5088180;28;20999;-77
2021/08/06 08:47:08;;;;;;;15.57;7.45;;;;;10.50;101590.00;;;;5089378;28;20032;-78
2021/08/06 08:49:38;;;;;;;10.43;7.85;;;;;10.50;101592.00;;;;5088391;28;20035;-78
2021/08/06 08:52:05;;;;;;;9.18;7.53;;;;;10.50;101622.00;;;;5088664;28;20032;-78
2021/08/06 08:54:31;;;;;;;14.70;6.95;;;;;10.40;101617.00;;;;5087992;28;20040;-78
2021/08/06 08:56:58;;;;;;;9.88;7.22;;;;;10.40;101601.00;;;;5087735;28;20032;-78
2021/08/06 08:59:24;;;;;;;13.18;7.25;;;;;10.30;101597.00;;;;5088353;28;20032;-79
2021/08/06 09:01:51;;;;;;;8.32;7.07;;;;;10.30;101635.00;;;;5087727;28;20407;-78
2021/08/06 09:04:27;;;;;;;7.40;6.30;;;;;10.20;101608.00;;;;5087578;28;20020;-77
2021/08/06 09:06:54;;;;;;;9.98;7.18;;;;;10.20;101612.00;;;;5088538;28;20784;-78
2021/08/06 09:09:23;;;;;;;10.10;6.63;;;;;10.20;101635.00;;;;5088784;28;20032;-78
2021/08/06 09:12:02;;;;;;;10.45;7.85;;;;;10.20;101637.00;;;;5087650;28;20047;-78
2021/08/06 09:14:30;;;;;;;12.00;7.78;;;;;10.20;101637.00;;;;5088437;28;20478;-78
2021/08/06 09:17:00;;;;;;;10.52;7.82;;;;;10.20;101606.00;;;;5088475;28;20028;-79
2021/08/06 09:19:32;;;;;;;9.85;7.18;;;;;10.20;101633.00;;;;5088161;28;20025;-77
2021/08/06 09:22:17;;;;;;;9.48;7.55;;;;;10.30;101629.00;;;;5087421;28;20415;-78
2021/08/06 09:25:04;;;;;;;12.75;7.00;;;;;10.20;101648.00;;;;5088429;28;20032;-77
2021/08/06 09:27:32;;;;;;;10.48;7.07;;;;;10.10;101648.00;;;;5087772;28;20066;-79
2021/08/06 09:30:01;;;;;;;12.63;6.90;;;;;10.20;101622.00;;;;5087450;28;20020;-78
2021/08/06 09:32:28;;;;;;;10.65;7.03;;;;;10.20;101629.00;;;;5087343;28;20126;-77
2021/08/06 09:34:55;;;;;;;18.00;7.30;;;;;10.10;101651.00;;;;5087518;28;20115;-77
2021/08/06 09:37:24;;;;;;;9.77;6.45;;;;;10.20;101644.00;;;;5087755;28;20554;-81
2021/08/06 09:39:52;;;;;;;14.00;6.90;;;;;10.20;101633.00;;;;5087789;28;20110;-79
2021/08/06 09:42:19;;;;;;;11.00;6.28;;;;;10.20;101652.00;;;;5087134;28;20483;-78
2021/08/06 09:44:56;;;;;;;9.70;6.25;;;;;10.10;101626.00;;;;5087514;28;20027;-77
2021/08/06 09:47:23;;;;;;;9.40;5.97;;;;;10.10;101631.00;;;;5086023;28;20024;-78
2021/08/06 09:49:55;;;;;;;15.70;6.20;;;;;10.10;101661.00;;;;5087173;28;20032;-80
2021/08/06 09:52:36;;;;;;;16.60;6.72;;;;;10.20;101658.00;;;;5084888;28;20045;-78
2021/08/06 09:55:06;;;;;;;12.15;6.28;;;;;10.20;101651.00;;;;5087652;28;20502;-78
2021/08/06 09:57:32;;;;;;;11.15;6.53;;;;;10.20;101661.00;;;;5086877;28;20490;-80
2021/08/06 10:00:00;;;;;;;19.23;7.05;;;;;10.00;101658.00;;;;5087420;28;20020;-80
2021/08/06 10:05:36;;;;;;;9.95;6.63;;;;;10.20;101639.00;;;;5085370;28;20050;-78
2021/08/06 10:08:03;;;;;;;14.63;6.57;;;;;10.20;101672.00;;;;5085558;28;20043;-80
2021/08/06 10:10:32;;;;;;;20.02;6.28;;;;;10.10;101644.00;;;;5087012;28;20062;-77
2021/08/06 10:13:00;;;;;;;14.05;6.60;;;;;10.10;101664.00;;;;5086821;28;20478;-78
2021/08/06 10:15:28;;;;;;;12.60;6.63;;;;;10.10;101670.00;;;;5086919;28;20043;-79
2021/08/06 10:17:56;;;;;;;15.60;6.10;;;;;10.20;101648.00;;;;5086852;28;20031;-77
2021/08/06 10:20:25;;;;;;;16.13;6.93;;;;;10.20;101676.00;;;;5086295;28;20059;-78
2021/08/06 10:22:53;;;;;;;13.00;7.40;;;;;10.40;101683.00;;;;5086716;28;20040;-78
2021/08/06 10:25:22;;;;;;;15.35;7.55;;;;;10.50;101660.00;;;;5087613;28;20054;-77
2021/08/06 10:27:50;;;;;;;17.45;6.40;;;;;10.50;101655.00;;;;5087016;28;20024;-77
2021/08/06 10:30:31;;;;;;;10.57;5.57;;;;;10.50;101674.00;;;;5087063;28;20017;-80
2021/08/06 10:33:28;;;;;;;9.20;5.38;;;;;10.60;101669.00;;;;5087271;28;20024;-79
2021/08/06 10:36:04;;;;;;;29.23;9.10;;;;;10.70;101660.00;;;;5087130;28;20036;-79
2021/08/06 10:38:44;;;;;;;8.50;5.78;;;;;10.70;101686.00;;;;5085605;28;20020;-79
2021/08/06 10:41:20;;;;;;;20.58;7.85;;;;;10.80;101694.00;;;;5085909;28;20435;-80
2021/08/06 10:44:02;;;;;;;9.77;6.63;;;;;11.00;101676.00;;;;5086649;28;20028;-79
2021/08/06 10:46:51;;;;;;;17.80;6.53;;;;;11.20;101668.00;;;;5086677;28;20034;-79
2021/08/06 10:49:18;;;;;;;7.57;5.00;;;;;11.20;101671.00;;;;5086799;28;20024;-80
2021/08/06 10:51:45;;;;;;;8.15;5.30;;;;;11.30;101664.00;;;;5086109;28;20707;-79
2021/08/06 10:54:27;;;;;;;22.50;6.75;;;;;11.40;101650.00;;;;5086351;28;20024;-79
2021/08/06 10:57:22;;;;;;;25.70;7.88;;;;;11.50;101673.00;;;;5086553;28;20069;-79
2021/08/06 10:59:49;;;;;;;13.35;7.13;;;;;11.50;101666.00;;;;5085571;28;20048;-78
2021/08/06 11:02:34;;;;;;;25.98;6.97;;;;;11.50;101691.00;;;;5086545;28;20040;-80
2021/08/06 11:05:21;;;;;;;22.63;6.90;;;;;11.60;101691.00;;;;5086527;28;20032;-79
2021/08/06 11:07:48;;;;;;;5.95;4.97;;;;;11.80;101687.00;;;;5086453;28;20514;-78
2021/08/06 11:10:52;;;;;;;36.67;13.13;;;;;11.90;101682.00;;;;5090300;28;20115;-79
2021/08/06 11:13:33;;;;;;;27.08;7.65;;;;;11.90;101685.00;;;;5088754;28;20024;-81
2021/08/06 11:16:08;;;;;;;15.63;6.90;;;;;11.90;101664.00;;;;5090408;28;20016;-79
2021/08/06 11:18:34;;;;;;;13.20;5.90;;;;;12.00;101665.00;;;;5090262;28;20435;-80
2021/08/06 11:21:01;;;;;;;16.70;6.80;;;;;12.10;101677.00;;;;5090021;28;20398;-79
2021/08/06 11:23:28;;;;;;;35.28;9.18;;;;;12.20;101681.00;;;;5090465;28;20131;-81
2021/08/06 11:25:55;;;;;;;14.52;6.30;;;;;12.30;101691.00;;;;5089967;28;20128;-79
2021/08/06 11:28:26;;;;;;;16.77;6.38;;;;;12.50;101673.00;;;;5090209;28;20035;-79
2021/08/06 11:30:52;;;;;;;10.38;6.13;;;;;12.60;101676.00;;;;5089782;28;20032;-80
2021/08/06 11:33:19;;;;;;;17.50;5.93;;;;;12.80;101685.00;;;;5089767;28;20050;-79
2021/08/06 11:35:46;;;;;;;33.55;6.78;;;;;13.00;101682.00;;;;5089862;28;20433;-79
2021/08/06 11:38:15;;;;;;;24.92;7.03;;;;;13.40;101660.00;;;;5089365;28;20475;-80
2021/08/06 11:40:47;;;;;;;19.52;6.47;;;;;13.60;101651.00;;;;5090453;28;20065;-79
2021/08/06 11:43:29;;;;;;;15.88;6.20;;;;;14.10;101654.00;;;;5089774;28;20031;-79
2021/08/06 11:46:10;;;;;;;14.77;5.70;;;;;15.70;101618.00;;;;5090159;28;20034;-79
2021/08/06 11:48:51;;;;;;;15.25;6.35;;;;;16.50;101604.00;;;;5089859;28;20095;-81
2021/08/06 11:51:18;;;;;;;9.60;4.53;;;;;18.00;101575.00;;;;5089761;28;20728;-80
2021/08/06 11:53:45;;;;;;;9.18;4.60;;;;;17.60;101593.00;;;;5089430;28;20042;-78
2021/08/06 11:56:15;;;;;;;15.85;5.00;;;;;17.60;101542.00;;;;5089203;28;20032;-81
2021/08/06 11:58:42;;;;;;;15.32;4.80;;;;;18.50;101539.00;;;;5089156;28;20027;-79
2021/08/06 12:01:20;;;;;;;6.78;4.20;;;;;19.20;101591.00;;;;5089701;28;20028;-78
2021/08/06 12:03:54;;;;;;;7.88;4.35;;;;;18.80;101601.00;;;;5089576;28;20532;-76
2021/08/06 12:06:22;;;;;;;14.18;5.13;;;;;17.80;101628.00;;;;5089317;28;20067;-79
2021/08/06 12:08:51;;;;;;;10.30;4.30;;;;;18.20;101573.00;;;;5088830;28;20548;-76
2021/08/06 12:11:19;;;;;;;15.25;5.18;;;;;18.20;101626.00;;;;5090104;28;20030;-77
2021/08/06 12:13:50;;;;;;;12.88;4.20;;;;;17.60;101649.00;;;;5090004;28;20038;-78
2021/08/06 12:16:31;;;;;;;12.63;4.13;;;;;16.90;101654.00;;;;5089707;28;20376;-78